Time;durP1;ratioP1;P1;durP2;ratioP2;P2;SDS_P1;SDS_P2;PMS_P1;PMS_P2;Temp;Humidity;BMP_temperature;BMP_pressure;BME280_temperature;BME280_humidity;BME280_pressure;Samples;Min_cycle;Max_cycle;Signal;HPM_P1;HPM_P2
2023/07/11 00:01:01;;;;;;;5.40;4.90;;;;;;;22.51;51.79;99078.91;5092503;28;42302;-75
2023/07/11 00:03:29;;;;;;;4.70;4.30;;;;;;;22.47;52.13;99069.47;5092561;28;40122;-77
2023/07/11 00:06:00;;;;;;;4.40;4.10;;;;;;;22.41;52.02;99061.16;5075454;28;41454;-77
2023/07/11 00:08:28;;;;;;;4.93;4.47;;;;;;;22.36;52.15;99061.69;5092826;28;42533;-76
2023/07/11 00:10:56;;;;;;;5.50;5.07;;;;;;;22.39;52.20;99074.81;5075106;28;43651;-79
2023/07/11 00:13:24;;;;;;;4.60;4.20;;;;;;;22.26;51.90;99058.25;5092730;28;39992;-78
2023/07/11 00:15:58;;;;;;;5.27;4.40;;;;;;;22.33;52.65;99064.72;5075158;28;41750;-77
2023/07/11 00:18:25;;;;;;;5.93;5.33;;;;;;;22.27;52.31;99049.16;5090750;28;43771;-78
2023/07/11 00:20:53;;;;;;;5.40;4.87;;;;;;;22.31;52.36;99066.72;5075132;28;40782;-76
2023/07/11 00:23:21;;;;;;;5.63;4.90;;;;;;;22.28;52.53;99061.66;5092315;28;39939;-78
2023/07/11 00:25:49;;;;;;;4.40;4.00;;;;;;;22.25;52.51;99072.78;5092112;28;41275;-76
2023/07/11 00:28:16;;;;;;;5.10;4.67;;;;;;;22.18;52.48;99066.34;5092352;28;42717;-79
2023/07/11 00:30:44;;;;;;;5.93;5.00;;;;;;;22.17;52.76;99080.84;5091962;28;41358;-80
2023/07/11 00:33:13;;;;;;;5.10;4.60;;;;;;;22.12;53.02;99077.81;5075574;28;38921;-78
2023/07/11 00:35:45;;;;;;;4.80;4.40;;;;;;;22.09;53.17;99073.59;5092017;28;41907;-79
2023/07/11 00:38:14;;;;;;;5.43;4.70;;;;;;;21.97;53.10;99052.44;5089216;28;43774;-77
2023/07/11 00:40:42;;;;;;;5.00;4.50;;;;;;;22.02;53.29;99066.28;5091671;28;42970;-80
2023/07/11 00:43:11;;;;;;;5.60;5.00;;;;;;;21.99;53.51;99059.38;5092343;28;39906;-75
2023/07/11 00:46:13;;;;;;;4.97;4.57;;;;;;;21.99;53.78;99055.84;5092995;28;42729;-77
2023/07/11 00:48:47;;;;;;;4.77;4.37;;;;;;;21.93;53.65;99053.75;5010956;28;42850;-79
2023/07/11 00:51:19;;;;;;;4.80;4.40;;;;;;;21.92;53.92;99057.47;5011721;28;42211;-79
2023/07/11 00:53:48;;;;;;;5.50;5.00;;;;;;;21.88;53.88;99053.41;5037603;28;40250;-80
2023/07/11 00:56:21;;;;;;;5.73;5.13;;;;;;;21.82;53.83;99052.19;5091745;28;41817;-76
2023/07/11 00:58:50;;;;;;;5.00;4.60;;;;;;;21.78;54.17;99054.38;5088904;28;42679;-78
2023/07/11 01:01:19;;;;;;;4.93;4.53;;;;;;;21.75;53.95;99059.25;5091677;28;41143;-76
2023/07/11 01:03:49;;;;;;;5.67;4.90;;;;;;;21.67;54.51;99043.88;5091745;28;39245;-80
2023/07/11 01:06:21;;;;;;;5.50;5.00;;;;;;;21.68;54.64;99048.28;5091665;28;41911;-76
2023/07/11 01:08:50;;;;;;;5.80;5.30;;;;;;;21.65;54.70;99053.13;5088619;28;42774;-77
2023/07/11 01:11:19;;;;;;;5.47;4.97;;;;;;;21.60;54.83;99050.94;5092669;28;42279;-79
2023/07/11 01:13:47;;;;;;;5.43;4.93;;;;;;;21.54;55.19;99056.94;5092842;28;40081;-76
2023/07/11 01:16:15;;;;;;;5.53;5.03;;;;;;;21.51;55.11;99051.91;5091669;28;40494;-80
2023/07/11 01:18:43;;;;;;;6.13;5.60;;;;;;;21.47;55.39;99048.69;5074541;28;42265;-77
2023/07/11 01:21:15;;;;;;;5.93;5.43;;;;;;;21.46;55.76;99054.22;5092386;28;43154;-77
2023/07/11 01:23:43;;;;;;;5.93;5.43;;;;;;;21.43;55.67;99043.75;5091417;28;39003;-78
2023/07/11 01:26:11;;;;;;;6.77;5.20;;;;;;;21.42;55.34;99047.44;5092311;28;41803;-78
2023/07/11 01:28:40;;;;;;;5.40;4.90;;;;;;;21.39;55.63;99053.16;5074074;28;41647;-76
2023/07/11 01:31:08;;;;;;;5.37;4.83;;;;;;;21.34;55.38;99055.50;5074342;28;41222;-76
2023/07/11 01:33:38;;;;;;;5.47;4.97;;;;;;;21.25;55.35;99034.91;5092480;28;40703;-77
2023/07/11 01:36:06;;;;;;;5.30;4.87;;;;;;;21.28;55.64;99042.66;5091120;28;42683;-79
2023/07/11 01:38:35;;;;;;;5.07;4.67;;;;;;;21.17;56.00;99035.66;5074256;28;43090;-78
2023/07/11 01:41:03;;;;;;;5.90;5.30;;;;;;;21.00;55.81;99005.09;5091943;28;42382;-78
2023/07/11 01:43:31;;;;;;;5.40;4.93;;;;;;;21.19;55.76;99041.75;5074391;28;38876;-78
2023/07/11 01:45:58;;;;;;;5.50;4.63;;;;;;;21.14;56.06;99044.88;5091215;28;42132;-78
2023/07/11 01:48:30;;;;;;;7.13;5.83;;;;;;;21.09;56.63;99039.16;5074322;28;41942;-77
2023/07/11 01:50:58;;;;;;;6.87;5.33;;;;;;;21.06;57.84;99036.75;5091574;28;42349;-79
2023/07/11 01:53:25;;;;;;;6.93;6.30;;;;;;;21.03;58.70;99037.06;5088171;28;39822;-79
2023/07/11 01:55:59;;;;;;;9.00;5.33;;;;;;;21.02;57.99;99031.84;5073793;28;41170;-75
2023/07/11 01:58:27;;;;;;;5.53;5.13;;;;;;;20.73;57.65;98986.41;5074303;28;41608;-78
2023/07/11 02:00:55;;;;;;;5.90;5.40;;;;;;;20.96;57.87;99030.66;5073663;28;41362;-76
2023/07/11 02:03:24;;;;;;;5.73;5.23;;;;;;;20.93;57.65;99033.63;5091106;28;39997;-81
2023/07/11 02:05:52;;;;;;;5.43;4.90;;;;;;;20.74;57.70;99012.31;5090643;28;41725;-78
2023/07/11 02:08:19;;;;;;;5.20;4.70;;;;;;;20.87;57.26;99031.59;5073713;28;42877;-78
2023/07/11 02:10:47;;;;;;;7.10;6.43;;;;;;;20.84;57.38;99026.50;5073221;28;41305;-77
2023/07/11 02:13:16;;;;;;;5.40;5.00;;;;;;;20.80;57.60;99027.81;5073875;28;39344;-78
2023/07/11 02:15:44;;;;;;;5.10;4.60;;;;;;;20.77;57.43;99023.59;5073535;28;41956;-78
2023/07/11 02:18:13;;;;;;;5.27;4.80;;;;;;;20.73;57.45;99029.47;5073891;28;41559;-79
2023/07/11 02:20:41;;;;;;;5.13;4.73;;;;;;;20.69;57.68;99020.00;5073369;28;40845;-77
2023/07/11 02:23:09;;;;;;;5.67;5.03;;;;;;;20.59;57.70;99011.16;5091206;28;40044;-76
2023/07/11 02:25:38;;;;;;;6.03;5.20;;;;;;;20.61;57.77;99028.00;5090139;28;41605;-76
2023/07/11 02:28:06;;;;;;;5.03;4.53;;;;;;;20.55;58.12;99025.91;5091573;28;42725;-77
2023/07/11 02:30:35;;;;;;;5.37;4.87;;;;;;;20.54;58.66;99016.16;5073429;28;40852;-76
2023/07/11 02:33:03;;;;;;;5.10;4.70;;;;;;;20.50;58.70;99007.56;5090538;28;40860;-76
2023/07/11 02:35:31;;;;;;;5.47;4.97;;;;;;;20.48;58.48;99009.56;5073194;28;41169;-78
2023/07/11 02:38:00;;;;;;;5.57;4.87;;;;;;;20.44;58.39;99009.03;5073414;28;41854;-78
2023/07/11 02:40:28;;;;;;;6.47;4.90;;;;;;;20.42;58.30;99004.78;5090008;28;41185;-77
2023/07/11 02:42:55;;;;;;;5.70;5.10;;;;;;;20.39;58.48;99005.97;5073549;28;38420;-77
2023/07/11 02:45:23;;;;;;;5.10;4.60;;;;;;;20.36;58.72;99008.97;5073321;28;41253;-78
2023/07/11 02:47:53;;;;;;;5.57;5.07;;;;;;;20.32;58.82;98999.47;5089853;28;43411;-79
2023/07/11 02:50:21;;;;;;;6.20;5.57;;;;;;;20.29;59.18;99005.16;5090072;28;42066;-77
2023/07/11 02:52:49;;;;;;;5.27;4.70;;;;;;;20.27;59.22;99007.16;5090990;28;40095;-79
2023/07/11 02:55:18;;;;;;;5.40;4.90;;;;;;;20.20;59.17;98989.09;5089954;28;40930;-76
2023/07/11 02:57:45;;;;;;;5.40;4.90;;;;;;;20.24;58.99;99007.47;5089793;28;41814;-80
2023/07/11 03:00:14;;;;;;;5.37;4.87;;;;;;;20.15;59.43;98992.25;5090046;28;42981;-76
2023/07/11 03:02:41;;;;;;;5.70;5.20;;;;;;;20.05;59.41;98980.69;5072964;28;40111;-78
2023/07/11 03:05:12;;;;;;;6.00;5.50;;;;;;;20.11;59.32;99001.63;5072891;28;42286;-77
2023/07/11 03:07:40;;;;;;;5.83;5.23;;;;;;;20.09;59.82;98992.84;5090584;28;42919;-77
2023/07/11 03:10:08;;;;;;;5.43;4.93;;;;;;;20.05;59.73;98994.16;5091108;28;42364;-77
2023/07/11 03:12:36;;;;;;;6.07;5.00;;;;;;;20.02;59.52;98986.41;5077842;28;39002;-75
2023/07/11 03:15:04;;;;;;;5.27;4.60;;;;;;;19.99;59.80;98981.31;5102745;28;42429;-76
2023/07/11 03:17:32;;;;;;;5.30;4.80;;;;;;;19.96;59.69;98987.00;5096911;28;41338;-79
2023/07/11 03:20:00;;;;;;;5.43;4.77;;;;;;;19.80;59.72;98965.31;5089989;28;42434;-80
2023/07/11 03:22:30;;;;;;;5.33;4.90;;;;;;;19.90;60.24;98990.31;5089740;28;40077;-79
2023/07/11 03:24:57;;;;;;;5.67;5.10;;;;;;;19.70;60.03;98966.22;5089796;28;41808;-77
2023/07/11 03:27:25;;;;;;;5.23;4.73;;;;;;;19.81;60.34;98975.06;5089292;28;43467;-78
2023/07/11 03:29:52;;;;;;;5.40;4.90;;;;;;;19.78;60.57;98978.09;5089516;28;40837;-79
2023/07/11 03:32:20;;;;;;;5.80;5.30;;;;;;;19.66;60.43;98970.19;5072499;28;38755;-76
2023/07/11 03:34:48;;;;;;;6.03;5.40;;;;;;;19.73;60.67;98979.38;5091710;28;41824;-77
2023/07/11 03:37:15;;;;;;;5.40;4.60;;;;;;;19.69;60.80;98964.53;5093038;28;42864;-77
2023/07/11 03:39:45;;;;;;;5.40;4.90;;;;;;;19.68;60.66;98960.16;5094752;28;42120;-78
2023/07/11 03:42:13;;;;;;;4.97;4.57;;;;;;;19.68;60.47;98976.28;5093210;28;40172;-77
2023/07/11 03:44:43;;;;;;;5.17;4.77;;;;;;;19.65;60.75;98978.44;5093299;28;40751;-77
2023/07/11 03:47:11;;;;;;;5.07;4.53;;;;;;;19.68;60.48;98978.97;5094175;28;42427;-80
2023/07/11 03:49:38;;;;;;;5.77;5.20;;;;;;;19.69;60.57;98986.03;5094098;28;42292;-79
2023/07/11 03:52:07;;;;;;;5.40;4.90;;;;;;;19.70;60.67;98987.72;5092264;28;40490;-79
2023/07/11 03:54:35;;;;;;;6.30;5.50;;;;;;;19.71;61.04;98981.38;5092920;28;41702;-78
2023/07/11 03:57:04;;;;;;;5.73;5.23;;;;;;;19.67;60.79;98971.91;5075567;28;42835;-79
2023/07/11 03:59:32;;;;;;;5.10;4.50;;;;;;;19.63;61.19;98965.16;5094137;28;43092;-75
2023/07/11 04:02:00;;;;;;;5.53;5.07;;;;;;;19.76;60.80;98985.44;5092475;28;38907;-79
2023/07/11 04:04:27;;;;;;;4.90;4.50;;;;;;;19.72;61.02;98969.63;5075825;28;41319;-76
2023/07/11 04:06:55;;;;;;;5.43;4.90;;;;;;;19.83;60.84;98986.53;5092090;28;41794;-75
2023/07/11 04:09:22;;;;;;;5.17;4.67;;;;;;;19.88;60.81;98984.25;5092309;28;42326;-77
2023/07/11 04:11:50;;;;;;;5.80;5.30;;;;;;;19.94;60.59;98980.94;5075286;28;38925;-79
2023/07/11 04:14:19;;;;;;;6.10;5.40;;;;;;;19.99;60.96;98981.31;5092712;28;42694;-77
2023/07/11 04:16:47;;;;;;;5.43;4.93;;;;;;;20.04;60.88;98979.84;5092118;28;42730;-78
2023/07/11 04:19:14;;;;;;;5.40;4.93;;;;;;;20.02;60.61;98962.22;5092290;28;40736;-77
2023/07/11 04:21:42;;;;;;;5.17;4.77;;;;;;;20.17;60.75;98978.63;5075129;28;39002;-77
2023/07/11 04:24:10;;;;;;;5.57;5.07;;;;;;;20.24;60.64;98977.88;5075408;28;40709;-79
2023/07/11 04:26:38;;;;;;;5.70;5.07;;;;;;;20.31;60.66;98973.56;5092238;28;41565;-76
2023/07/11 04:29:06;;;;;;;5.13;4.67;;;;;;;20.39;60.95;98973.69;5092419;28;42233;-77
2023/07/11 04:31:35;;;;;;;5.80;5.30;;;;;;;20.47;60.72;98974.75;5092210;28;40860;-77
2023/07/11 04:34:03;;;;;;;5.43;4.93;;;;;;;20.56;61.05;98979.19;5092105;28;42148;-76
2023/07/11 04:36:31;;;;;;;7.57;5.50;;;;;;;20.65;61.21;98972.84;5093192;28;42811;-76
2023/07/11 04:39:00;;;;;;;6.30;5.70;;;;;;;20.75;61.40;98979.00;5075269;28;42078;-78
2023/07/11 04:41:27;;;;;;;6.60;5.97;;;;;;;20.88;61.28;98971.38;5074612;28;40359;-77
2023/07/11 04:43:55;;;;;;;6.63;5.83;;;;;;;20.95;61.86;98967.03;5091900;28;41696;-79
2023/07/11 04:46:22;;;;;;;6.30;5.70;;;;;;;21.15;61.25;98970.31;5091608;28;41425;-75
2023/07/11 04:48:51;;;;;;;7.60;6.17;;;;;;;21.24;61.76;98973.97;5091937;28;42482;-78
2023/07/11 04:51:19;;;;;;;7.37;6.57;;;;;;;21.27;61.39;98979.00;5092580;28;39840;-75
2023/07/11 04:53:47;;;;;;;7.03;6.20;;;;;;;21.28;61.78;98970.75;5092119;28;41935;-77
2023/07/11 04:56:14;;;;;;;8.37;6.63;;;;;;;21.34;61.24;98980.06;5074360;28;41821;-79
2023/07/11 04:58:42;;;;;;;7.57;5.70;;;;;;;21.29;61.17;98955.44;5092733;28;42298;-78
2023/07/11 05:01:12;;;;;;;6.67;6.07;;;;;;;21.50;61.14;98974.75;5091601;28;40584;-77
2023/07/11 05:03:41;;;;;;;5.93;5.33;;;;;;;21.54;60.79;98961.78;5091594;28;40617;-78
2023/07/11 05:06:10;;;;;;;6.30;5.60;;;;;;;21.73;60.68;98975.84;5074426;28;41772;-75
2023/07/11 05:08:37;;;;;;;13.80;6.90;;;;;;;21.86;60.76;98981.63;5074732;28;41020;-76
2023/07/11 05:11:11;;;;;;;7.93;6.70;;;;;;;21.86;60.45;98960.06;5092609;28;40309;-78
2023/07/11 05:13:38;;;;;;;9.37;6.73;;;;;;;22.07;60.51;98972.25;5074491;28;41266;-77
2023/07/11 05:16:08;;;;;;;7.70;6.30;;;;;;;22.19;60.15;98976.31;5092354;28;43454;-76
2023/07/11 05:18:40;;;;;;;6.80;5.73;;;;;;;22.03;59.88;98938.53;5091479;28;41888;-80
2023/07/11 05:21:10;;;;;;;7.27;6.57;;;;;;;22.35;59.64;98960.16;5090317;28;40957;-79
2023/07/11 05:23:39;;;;;;;11.47;6.83;;;;;;;22.53;59.59;98973.47;5093309;28;41966;-80
2023/07/11 05:26:07;;;;;;;7.07;6.37;;;;;;;22.63;59.52;98975.97;5073365;28;41882;-75
2023/07/11 05:28:35;;;;;;;10.07;7.20;;;;;;;22.72;59.34;98966.88;5073934;28;41628;-76
2023/07/11 05:31:05;;;;;;;8.33;6.53;;;;;;;22.82;58.96;98962.19;5091887;28;40025;-77
2023/07/11 05:33:34;;;;;;;7.87;6.73;;;;;;;22.92;59.14;98962.81;5087049;28;41591;-80
2023/07/11 05:36:13;;;;;;;7.30;6.70;;;;;;;23.02;58.70;98962.63;5090046;28;43631;-77
2023/07/11 05:38:42;;;;;;;8.00;5.90;;;;;;;22.82;58.29;98910.88;5087215;28;42438;-84
2023/07/11 05:41:09;;;;;;;6.73;5.97;;;;;;;23.28;58.02;98966.78;5090780;28;38846;-82
2023/07/11 05:43:37;;;;;;;7.17;6.47;;;;;;;23.34;57.84;98961.72;5089960;28;41646;-86
2023/07/11 05:46:05;;;;;;;6.37;5.77;;;;;;;23.38;57.32;98946.81;5090114;28;41719;-82
2023/07/11 05:48:33;;;;;;;8.10;6.33;;;;;;;23.67;57.43;98968.69;5090465;28;41249;-82
2023/07/11 05:51:02;;;;;;;7.47;6.70;;;;;;;23.72;56.59;98965.47;5089600;28;40290;-78
2023/07/11 05:53:30;;;;;;;7.93;7.10;;;;;;;23.85;56.37;98972.00;5088660;28;42746;-78
2023/07/11 05:55:59;;;;;;;7.73;6.93;;;;;;;23.95;56.04;98969.06;5089271;28;41497;-78
2023/07/11 05:58:29;;;;;;;8.83;7.10;;;;;;;24.08;56.15;98977.44;5090174;28;40891;-78
2023/07/11 06:00:58;;;;;;;7.33;6.33;;;;;;;24.19;55.74;98968.91;5090235;28;39401;-77
2023/07/11 06:03:27;;;;;;;7.63;6.70;;;;;;;24.32;55.57;98973.75;5090822;28;41721;-77
2023/07/11 06:06:01;;;;;;;7.80;7.00;;;;;;;24.49;55.44;98971.75;5091543;28;43865;-77
2023/07/11 06:08:29;;;;;;;7.43;6.73;;;;;;;24.37;55.00;98928.00;5087492;28;42516;-78
2023/07/11 06:10:59;;;;;;;7.87;7.27;;;;;;;24.74;54.54;98975.06;5090165;28;40084;-78
2023/07/11 06:13:28;;;;;;;8.23;7.43;;;;;;;24.82;54.13;98975.88;5088636;28;41642;-78
2023/07/11 06:16:00;;;;;;;9.73;7.23;;;;;;;24.94;54.14;98965.44;5091289;28;43420;-77
2023/07/11 06:18:28;;;;;;;9.70;7.10;;;;;;;25.09;54.09;98971.75;5107289;28;41164;-78
2023/07/11 06:20:55;;;;;;;8.07;6.90;;;;;;;25.22;53.25;98974.63;5073203;28;38566;-78
2023/07/11 06:23:23;;;;;;;8.37;7.53;;;;;;;25.36;52.93;98978.38;5091531;28;42541;-76
2023/07/11 06:25:51;;;;;;;7.30;6.13;;;;;;;25.51;52.55;98975.66;5106765;28;41668;-76
2023/07/11 06:28:20;;;;;;;8.03;6.73;;;;;;;25.72;52.12;98978.47;5091542;28;42491;-76
2023/07/11 06:30:48;;;;;;;6.77;6.17;;;;;;;25.93;52.19;98974.97;5091232;28;39846;-76
2023/07/11 06:33:17;;;;;;;7.87;7.03;;;;;;;26.09;51.71;98967.41;5090377;28;41780;-77
2023/07/11 06:35:49;;;;;;;8.43;7.63;;;;;;;26.27;50.94;98977.00;5089611;28;41845;-77
2023/07/11 06:38:17;;;;;;;8.07;7.27;;;;;;;26.39;50.21;98980.94;5091647;28;41663;-77
2023/07/11 06:40:49;;;;;;;7.60;6.90;;;;;;;26.52;50.42;98969.34;5106725;28;39294;-77
2023/07/11 06:43:17;;;;;;;7.67;6.87;;;;;;;26.79;49.72;98977.53;5089987;28;40873;-78
2023/07/11 06:45:47;;;;;;;9.37;7.53;;;;;;;27.06;49.51;98975.91;5123755;27;42850;-77
2023/07/11 06:48:15;;;;;;;8.17;7.23;;;;;;;27.25;48.29;98952.59;5124037;27;42060;-77
2023/07/11 06:50:47;;;;;;;7.27;6.53;;;;;;;27.73;47.57;98960.81;5091427;28;40046;-78
2023/07/11 06:53:15;;;;;;;9.67;7.17;;;;;;;28.02;46.86;98973.28;5089359;28;42590;-79
2023/07/11 06:55:45;;;;;;;9.17;7.17;;;;;;;28.11;46.96;98981.06;5091734;28;43091;-78
2023/07/11 06:58:13;;;;;;;7.43;6.73;;;;;;;28.12;46.48;98980.00;5072973;28;42228;-78
2023/07/11 07:00:42;;;;;;;8.97;7.93;;;;;;;28.26;45.88;98983.66;5090690;28;39990;-79
2023/07/11 07:03:12;;;;;;;7.27;6.67;;;;;;;28.38;45.67;98981.16;5089612;28;41023;-77
2023/07/11 07:05:47;;;;;;;7.33;6.63;;;;;;;28.49;45.02;98980.53;5124031;27;42555;-77
2023/07/11 07:08:15;;;;;;;8.03;7.23;;;;;;;28.65;45.04;98976.56;5091058;28;42043;-78
2023/07/11 07:10:46;;;;;;;7.27;6.50;;;;;;;28.82;44.82;98981.41;5110167;28;39753;-77
2023/07/11 07:13:14;;;;;;;7.87;7.17;;;;;;;28.94;44.69;98985.19;5110193;28;40616;-77
2023/07/11 07:15:42;;;;;;;7.83;7.10;;;;;;;29.06;43.76;98990.84;5094176;28;43758;-77
2023/07/11 07:18:11;;;;;;;10.27;6.73;;;;;;;29.25;44.04;98987.28;5094643;28;43204;-77
2023/07/11 07:20:38;;;;;;;8.83;6.70;;;;;;;29.20;43.23;98940.69;5093313;28;39922;-78
2023/07/11 07:23:06;;;;;;;8.07;6.27;;;;;;;29.53;43.21;98970.66;5092952;28;41405;-78
2023/07/11 07:25:34;;;;;;;10.30;7.93;;;;;;;29.80;42.71;98978.72;5094238;28;43580;-78
2023/07/11 07:28:01;;;;;;;8.20;7.40;;;;;;;29.90;41.99;98973.66;5093008;28;41228;-78
2023/07/11 07:30:29;;;;;;;6.73;6.13;;;;;;;30.11;42.15;98976.09;5092624;28;39465;-79
2023/07/11 07:32:58;;;;;;;8.30;7.50;;;;;;;30.28;42.35;98974.53;5093056;28;40197;-79
2023/07/11 07:35:27;;;;;;;7.60;6.90;;;;;;;30.48;41.24;98982.59;5127333;27;43741;-78
2023/07/11 07:37:54;;;;;;;8.87;6.70;;;;;;;30.78;40.48;98977.38;5094220;28;43384;-78
2023/07/11 07:40:22;;;;;;;7.70;6.93;;;;;;;31.03;39.69;98969.97;5094294;28;40951;-78
2023/07/11 07:42:50;;;;;;;8.37;7.47;;;;;;;31.43;39.66;98986.03;5075933;28;42612;-77
2023/07/11 07:45:18;;;;;;;7.47;6.70;;;;;;;31.54;38.66;98985.28;5092863;28;41823;-77
2023/07/11 07:47:46;;;;;;;8.07;7.27;;;;;;;31.71;37.97;98996.50;5094054;28;42208;-78
2023/07/11 07:50:14;;;;;;;5.97;5.47;;;;;;;32.01;37.45;98980.97;5075962;28;39056;-78
2023/07/11 07:52:43;;;;;;;6.90;6.30;;;;;;;32.97;36.58;98992.84;5075221;28;40895;-78
2023/07/11 07:55:10;;;;;;;6.97;6.37;;;;;;;34.11;34.65;98999.59;5075748;28;42931;-78
2023/07/11 07:57:38;;;;;;;7.20;6.50;;;;;;;35.22;32.61;99012.66;5093843;28;43158;-78
2023/07/11 08:00:06;;;;;;;7.23;6.63;;;;;;;36.28;31.27;99009.72;5093939;28;41078;-78
2023/07/11 08:02:35;;;;;;;8.87;6.73;;;;;;;37.25;29.78;99015.09;5075324;28;41771;-79
2023/07/11 08:05:03;;;;;;;6.10;5.50;;;;;;;37.74;28.93;99018.47;5093711;28;42803;-78
2023/07/11 08:07:30;;;;;;;6.10;5.55;;;;;;;38.15;28.70;99006.81;5092342;28;43469;-79
2023/07/11 08:10:00;;;;;;;6.05;5.55;;;;;;;38.83;27.40;99010.28;5075765;28;38788;-79
2023/07/11 08:12:28;;;;;;;6.65;5.97;;;;;;;39.68;26.56;99016.91;5092105;28;40723;-79
2023/07/11 08:14:55;;;;;;;6.40;5.60;;;;;;;40.42;25.36;99014.16;5126703;27;43757;-79
2023/07/11 08:17:23;;;;;;;6.03;5.45;;;;;;;41.31;24.48;99014.03;5093565;28;43194;-79
2023/07/11 08:19:50;;;;;;;6.45;5.70;;;;;;;42.08;23.31;99021.28;5091481;28;39160;-79
2023/07/11 08:22:18;;;;;;;5.30;4.80;;;;;;;42.75;23.20;99015.66;5126432;27;41759;-79
2023/07/11 08:24:45;;;;;;;6.53;5.70;;;;;;;43.17;22.93;99011.88;5092162;28;42527;-79
2023/07/11 08:27:14;;;;;;;6.05;5.10;;;;;;;43.22;22.41;99009.88;5092022;28;42215;-79
2023/07/11 08:29:45;;;;;;;4.90;4.35;;;;;;;43.12;22.35;99014.78;5126192;27;40853;-79
2023/07/11 08:32:13;;;;;;;5.82;5.32;;;;;;;42.89;22.08;99011.81;5108896;28;41820;-79
2023/07/11 08:34:41;;;;;;;5.28;4.78;;;;;;;42.59;22.46;99001.94;5093235;28;42778;-79
2023/07/11 08:37:09;;;;;;;6.38;5.78;;;;;;;42.28;22.85;98996.00;5093122;28;42204;-79
2023/07/11 08:39:37;;;;;;;7.15;5.55;;;;;;;42.26;22.64;98995.47;5091866;28;38894;-79
2023/07/11 08:42:13;;;;;;;6.10;5.45;;;;;;;42.18;22.81;98984.97;5126108;27;42634;-79
2023/07/11 08:44:50;;;;;;;5.10;4.60;;;;;;;41.89;22.84;98984.22;5090144;28;43775;-79
2023/07/11 08:47:23;;;;;;;10.35;6.05;;;;;;;41.50;22.78;98981.59;5092323;28;42502;-79
2023/07/11 08:49:55;;;;;;;5.80;5.13;;;;;;;41.02;22.49;98984.28;5088910;28;40941;-79
2023/07/11 08:52:26;;;;;;;5.53;5.10;;;;;;;40.51;22.94;98973.53;5091905;28;42546;-80
2023/07/11 08:54:59;;;;;;;6.28;4.88;;;;;;;40.25;23.27;98962.84;5093056;28;43494;-79
2023/07/11 08:57:30;;;;;;;4.80;4.40;;;;;;;39.98;23.07;98969.66;5091303;28;41232;-80
2023/07/11 09:00:06;;;;;;;5.72;5.22;;;;;;;39.78;22.25;98964.19;5122739;27;41156;-79
2023/07/11 09:02:41;;;;;;;5.32;4.35;;;;;;;39.57;22.70;98968.94;5091261;28;42509;-79
2023/07/11 09:05:14;;;;;;;5.00;4.50;;;;;;;39.50;23.12;98968.44;5089687;28;42830;-80
2023/07/11 09:07:44;;;;;;;6.65;4.18;;;;;;;39.43;22.93;98957.66;5092258;28;42072;-79
2023/07/11 09:10:32;;;;;;;5.28;4.55;;;;;;;39.44;22.95;98955.72;5074315;28;38804;-78
2023/07/11 09:13:06;;;;;;;5.40;4.88;;;;;;;39.34;22.52;98942.66;5122502;27;42801;-79
2023/07/11 09:15:45;;;;;;;4.90;4.40;;;;;;;38.95;23.46;98908.38;5074101;28;43243;-79
2023/07/11 09:18:37;;;;;;;4.22;3.80;;;;;;;39.18;23.37;98927.19;5089605;28;43126;-79
2023/07/11 09:21:14;;;;;;;4.65;4.20;;;;;;;39.45;23.54;98929.63;5123177;27;40003;-79
2023/07/11 09:23:53;;;;;;;5.90;4.10;;;;;;;39.41;23.19;98926.63;5108423;28;40619;-79
2023/07/11 09:26:27;;;;;;;5.43;4.13;;;;;;;39.31;23.31;98920.25;5091164;28;42015;-79
2023/07/11 09:29:01;;;;;;;4.22;3.92;;;;;;;39.20;23.49;98904.72;5089273;28;43125;-80
2023/07/11 09:31:41;;;;;;;5.72;4.10;;;;;;;39.62;23.50;98912.66;5089354;28;39980;-79
2023/07/11 09:34:17;;;;;;;4.85;4.40;;;;;;;40.46;22.48;98906.94;5089272;28;42607;-79
2023/07/11 09:36:48;;;;;;;4.65;4.07;;;;;;;41.24;21.78;98920.72;5073952;28;42730;-78
2023/07/11 09:39:22;;;;;;;5.75;4.30;;;;;;;41.51;21.36;98925.69;5108177;28;42636;-79
2023/07/11 09:41:59;;;;;;;4.22;3.88;;;;;;;41.66;21.56;98916.38;5091245;28;39215;-80
2023/07/11 09:44:27;;;;;;;5.60;4.22;;;;;;;41.68;21.34;98913.28;5122345;27;42530;-79
2023/07/11 09:46:56;;;;;;;4.75;4.05;;;;;;;41.66;22.05;98904.41;5092115;28;42900;-79
2023/07/11 09:49:28;;;;;;;5.13;4.30;;;;;;;41.93;21.28;98902.63;5125300;27;43062;-79
2023/07/11 09:51:59;;;;;;;3.85;3.53;;;;;;;42.91;20.37;98903.63;5073944;28;39183;-79
2023/07/11 09:54:29;;;;;;;5.00;3.80;;;;;;;44.45;19.19;98907.75;5091035;28;42137;-79
2023/07/11 09:57:09;;;;;;;4.55;4.07;;;;;;;45.77;18.05;98914.22;5090552;28;42801;-78
2023/07/11 09:59:37;;;;;;;5.05;4.03;;;;;;;46.49;17.75;98908.06;5088821;28;42299;-79
2023/07/11 10:02:16;;;;;;;4.07;3.67;;;;;;;46.39;17.10;98910.41;5090361;28;38567;-77
2023/07/11 10:04:45;;;;;;;4.18;3.88;;;;;;;45.56;18.19;98888.00;5090637;28;40891;-79
2023/07/11 10:07:15;;;;;;;3.50;3.20;;;;;;;44.89;19.27;98885.38;5091678;28;42764;-79
2023/07/11 10:09:45;;;;;;;4.28;3.88;;;;;;;44.21;19.33;98877.28;5090652;28;41010;-78
2023/07/11 10:12:16;;;;;;;4.55;4.15;;;;;;;43.50;19.87;98878.84;5093881;28;38747;-79
2023/07/11 10:14:46;;;;;;;4.50;4.10;;;;;;;42.95;20.23;98857.31;5094361;28;41759;-78
2023/07/11 10:17:19;;;;;;;9.82;4.75;;;;;;;42.70;20.99;98841.03;5107310;28;42920;-79
2023/07/11 10:19:48;;;;;;;4.90;4.40;;;;;;;42.75;20.56;98854.88;5088664;28;43205;-78
2023/07/11 10:22:17;;;;;;;4.57;4.18;;;;;;;42.69;20.60;98849.69;5090181;28;39357;-79
2023/07/11 10:24:45;;;;;;;4.55;4.05;;;;;;;42.69;20.79;98844.94;5090172;28;41759;-79
2023/07/11 10:27:24;;;;;;;4.28;3.90;;;;;;;42.82;20.37;98849.75;5091254;28;43319;-77
2023/07/11 10:29:57;;;;;;;5.10;4.35;;;;;;;42.60;20.70;98842.06;5121020;27;42219;-79
2023/07/11 10:32:32;;;;;;;4.47;4.00;;;;;;;42.17;20.69;98810.72;5073143;28;40006;-78
2023/07/11 10:35:03;;;;;;;5.53;4.72;;;;;;;42.07;20.85;98844.31;5073128;28;41322;-79
2023/07/11 10:37:35;;;;;;;4.88;4.45;;;;;;;41.92;21.34;98822.22;5090112;28;41223;-78
2023/07/11 10:40:12;;;;;;;5.75;5.25;;;;;;;42.03;21.67;98809.03;5089807;28;41411;-78
2023/07/11 10:42:44;;;;;;;5.00;4.47;;;;;;;42.09;20.79;98825.34;5090621;28;40836;-79
2023/07/11 10:45:15;;;;;;;5.18;4.78;;;;;;;42.12;21.87;98807.22;5088369;28;42732;-78
2023/07/11 10:47:54;;;;;;;5.28;4.78;;;;;;;42.12;21.75;98801.66;5107114;28;42777;-77
2023/07/11 10:50:35;;;;;;;6.68;4.32;;;;;;;41.90;21.56;98803.09;5120963;27;42046;-77
2023/07/11 10:53:12;;;;;;;5.03;4.35;;;;;;;41.75;21.84;98805.25;5090159;28;39958;-78
2023/07/11 10:55:47;;;;;;;6.15;4.50;;;;;;;41.73;21.60;98802.78;5090490;28;20217;-79
2023/07/11 10:58:18;;;;;;;4.90;4.50;;;;;;;41.60;21.56;98792.41;5088020;28;42695;-77
2023/07/11 11:00:56;;;;;;;5.63;5.13;;;;;;;41.46;21.57;98789.50;5089880;28;42655;-77
2023/07/11 11:03:41;;;;;;;5.13;4.55;;;;;;;41.54;22.12;98777.75;5086940;28;39934;-78
2023/07/11 11:06:24;;;;;;;5.53;5.07;;;;;;;41.71;22.16;98779.16;5088715;28;41664;-77
2023/07/11 11:08:59;;;;;;;5.00;4.60;;;;;;;41.63;21.72;98771.50;5106456;28;41802;-77
2023/07/11 11:11:37;;;;;;;5.72;4.63;;;;;;;41.57;21.77;98768.78;5106295;28;42314;-77
2023/07/11 11:14:12;;;;;;;5.47;4.72;;;;;;;41.60;21.60;98751.50;5073083;28;39252;-77
2023/07/11 11:16:52;;;;;;;8.23;5.32;;;;;;;41.67;21.10;98759.47;5089646;28;40590;-77
2023/07/11 11:19:33;;;;;;;4.93;4.43;;;;;;;41.54;21.56;98749.94;5090154;28;43530;-76
2023/07/11 11:22:07;;;;;;;7.65;5.07;;;;;;;41.50;21.53;98750.81;5086512;28;43030;-78
2023/07/11 11:24:46;;;;;;;5.97;4.82;;;;;;;41.50;20.88;98740.50;5123366;27;40111;-77
2023/07/11 11:27:27;;;;;;;6.50;4.43;;;;;;;41.56;21.99;98732.94;5086507;28;42036;-79
2023/07/11 11:30:01;;;;;;;4.82;4.43;;;;;;;41.70;20.57;98738.56;5086788;28;43524;-78
2023/07/11 11:32:37;;;;;;;5.10;4.70;;;;;;;41.81;21.08;98731.72;5072711;28;42043;-77
2023/07/11 11:35:16;;;;;;;5.68;4.55;;;;;;;41.97;21.02;98733.16;5088192;28;39749;-77
2023/07/11 11:38:10;;;;;;;5.30;4.80;;;;;;;42.05;20.95;98724.09;5072487;28;40925;-78
2023/07/11 11:40:41;;;;;;;6.18;4.95;;;;;;;42.10;21.15;98726.81;5088862;28;41756;-78
2023/07/11 11:43:12;;;;;;;5.35;4.93;;;;;;;42.43;20.65;98729.56;5087531;28;43585;-79
2023/07/11 11:45:41;;;;;;;5.10;4.60;;;;;;;42.72;20.03;98732.91;5087703;28;40653;-79
2023/07/11 11:48:17;;;;;;;5.47;4.97;;;;;;;43.06;20.04;98726.09;5089243;28;42765;-78